createdAt,value
2022-08-09T00:01:45.637Z,24.83
2022-08-09T00:04:34.724Z,24.89
2022-08-09T00:07:03.741Z,24.81
2022-08-09T00:09:38.242Z,24.78
2022-08-09T00:12:05.850Z,24.75
2022-08-09T00:14:37.909Z,24.68
2022-08-09T00:17:06.436Z,24.65
2022-08-09T00:19:34.077Z,24.60
2022-08-09T00:22:03.475Z,24.55
2022-08-09T00:24:32.017Z,24.51
2022-08-09T00:27:00.062Z,24.55
2022-08-09T00:29:39.557Z,24.51
2022-08-09T00:32:25.394Z,24.49
2022-08-09T00:34:53.107Z,24.51
2022-08-09T00:37:20.438Z,24.50
2022-08-09T00:40:12.231Z,24.45
2022-08-09T00:44:16.717Z,24.46
2022-08-09T00:45:22.466Z,24.47
2022-08-09T00:47:50.015Z,24.48
2022-08-09T00:50:17.348Z,24.44
2022-08-09T00:52:44.619Z,24.40
2022-08-09T00:55:32.949Z,24.38
2022-08-09T00:57:59.813Z,24.32
2022-08-09T01:00:27.761Z,24.27
2022-08-09T01:03:02.578Z,24.19
2022-08-09T01:05:53.160Z,24.17
2022-08-09T01:08:27.053Z,24.12
2022-08-09T01:11:17.914Z,24.06
2022-08-09T01:13:59.476Z,23.97
2022-08-09T01:16:30.367Z,23.87
2022-08-09T01:19:01.954Z,23.74
2022-08-09T01:21:45.183Z,23.77
2022-08-09T01:24:35.096Z,23.84
2022-08-09T01:27:13.323Z,23.85
2022-08-09T01:29:55.558Z,23.80
2022-08-09T01:32:30.218Z,23.75
2022-08-09T01:35:18.292Z,23.66
2022-08-09T01:38:09.440Z,23.58
2022-08-09T01:40:41.268Z,23.54
2022-08-09T01:43:10.009Z,23.53
2022-08-09T01:45:46.235Z,23.52
2022-08-09T01:48:16.462Z,23.50
2022-08-09T01:50:54.982Z,23.49
2022-08-09T01:53:23.864Z,23.50
2022-08-09T01:55:57.101Z,23.49
2022-08-09T01:58:25.687Z,23.44
2022-08-09T02:00:56.242Z,23.45
2022-08-09T02:03:24.366Z,23.43
2022-08-09T02:06:06.425Z,23.39
2022-08-09T02:08:56.728Z,23.37
2022-08-09T02:11:25.558Z,23.32
2022-08-09T02:14:15.889Z,23.29
2022-08-09T02:17:14.680Z,23.25
2022-08-09T02:19:43.596Z,23.22
2022-08-09T02:22:16.846Z,23.16
2022-08-09T02:24:51.989Z,23.11
2022-08-09T02:27:20.704Z,23.11
2022-08-09T02:30:08.661Z,23.07
2022-08-09T02:32:39.851Z,22.98
2022-08-09T02:35:17.258Z,22.95
2022-08-09T02:37:46.526Z,22.89
2022-08-09T02:40:24.867Z,22.86
2022-08-09T02:43:00.034Z,22.79
2022-08-09T02:45:32.977Z,22.77
2022-08-09T02:48:06.155Z,22.71
2022-08-09T02:50:56.243Z,22.67
2022-08-09T02:53:28.858Z,22.65
2022-08-09T02:55:58.962Z,22.62
2022-08-09T02:58:36.915Z,22.63
2022-08-09T03:01:10.838Z,22.57
2022-08-09T03:04:18.396Z,22.57
2022-08-09T03:06:28.140Z,22.50
2022-08-09T03:08:57.342Z,22.49
2022-08-09T03:11:29.904Z,22.46
2022-08-09T03:14:15.898Z,22.48
2022-08-09T03:16:45.052Z,22.42
2022-08-09T03:19:52.296Z,22.40
2022-08-09T03:22:04.608Z,22.35
2022-08-09T03:24:52.391Z,22.31
2022-08-09T03:27:21.536Z,22.26
2022-08-09T03:29:57.612Z,22.27
2022-08-09T03:32:34.139Z,22.21
2022-08-09T03:35:24.265Z,22.19
2022-08-09T03:37:55.959Z,22.12
2022-08-09T03:40:25.646Z,22.11
2022-08-09T03:42:58.516Z,22.11
2022-08-09T03:46:03.256Z,22.08
2022-08-09T03:48:19.127Z,22.02
2022-08-09T03:50:59.717Z,22.02
2022-08-09T03:53:32.198Z,22.08
2022-08-09T03:56:04.819Z,22.10
2022-08-09T03:58:33.026Z,22.07
2022-08-09T04:01:00.358Z,22.11
2022-08-09T04:03:46.077Z,22.18
2022-08-09T04:06:16.059Z,22.18
2022-08-09T04:08:46.633Z,22.16
2022-08-09T04:11:14.181Z,22.18
2022-08-09T04:13:44.849Z,22.18
2022-08-09T04:16:20.721Z,22.22
2022-08-09T04:18:49.227Z,22.21
2022-08-09T04:21:19.102Z,22.20
2022-08-09T04:23:53.951Z,22.22
2022-08-09T04:26:23.428Z,22.30
2022-08-09T04:28:52.412Z,22.32
2022-08-09T04:31:23.509Z,22.32
2022-08-09T04:33:56.945Z,22.32
2022-08-09T04:36:28.034Z,22.32
2022-08-09T04:38:57.048Z,22.31
2022-08-09T04:41:32.891Z,22.36
2022-08-09T04:44:06.080Z,22.41
2022-08-09T04:46:57.048Z,22.41
2022-08-09T04:49:40.732Z,22.40
2022-08-09T04:52:18.232Z,22.37
2022-08-09T04:54:51.611Z,22.37
2022-08-09T04:57:24.070Z,22.40
2022-08-09T04:59:55.487Z,22.37
2022-08-09T05:02:23.854Z,22.31
2022-08-09T05:04:55.394Z,22.25
2022-08-09T05:07:23.835Z,22.24
2022-08-09T05:09:51.604Z,22.24
2022-08-09T05:12:22.524Z,22.33
2022-08-09T05:14:55.130Z,22.43
2022-08-09T05:18:36.706Z,22.43
2022-08-09T05:20:10.115Z,22.43
2022-08-09T05:23:53.534Z,22.44
2022-08-09T05:25:26.535Z,22.46
2022-08-09T05:27:59.745Z,22.46
2022-08-09T05:30:30.117Z,22.44
2022-08-09T05:32:59.316Z,22.44
2022-08-09T05:35:26.679Z,22.50
2022-08-09T05:37:57.099Z,22.58
2022-08-09T05:40:31.601Z,22.56
2022-08-09T05:42:58.843Z,22.56
2022-08-09T05:45:26.539Z,22.61
2022-08-09T05:48:13.978Z,22.59
2022-08-09T05:50:51.065Z,22.65
2022-08-09T05:53:33.359Z,22.73
2022-08-09T05:56:01.654Z,22.74
2022-08-09T05:58:29.132Z,22.85
2022-08-09T06:00:56.411Z,22.83
2022-08-09T06:03:25.511Z,22.80
2022-08-09T06:06:05.866Z,22.82
2022-08-09T06:08:33.960Z,22.96
2022-08-09T06:11:01.323Z,23.09
2022-08-09T06:13:43.542Z,23.24
2022-08-09T06:16:13.080Z,23.38
2022-08-09T06:18:40.425Z,23.48
2022-08-09T06:21:08.163Z,23.63
2022-08-09T06:23:55.716Z,23.62
2022-08-09T06:26:28.622Z,23.57
2022-08-09T06:29:00.873Z,23.60
2022-08-09T06:31:40.376Z,23.75
2022-08-09T06:34:22.524Z,23.87
2022-08-09T06:36:59.000Z,23.93
2022-08-09T06:39:48.411Z,24.00
2022-08-09T06:42:16.582Z,24.00
2022-08-09T06:44:54.173Z,24.03
2022-08-09T06:47:22.239Z,24.08
2022-08-09T06:50:13.403Z,24.10
2022-08-09T06:52:45.837Z,24.10
2022-08-09T06:55:15.691Z,24.08
2022-08-09T06:58:01.976Z,24.20
2022-08-09T07:00:51.003Z,24.24
2022-08-09T07:03:19.837Z,24.30
2022-08-09T07:06:03.090Z,24.29
2022-08-09T07:08:31.874Z,24.20
2022-08-09T07:10:59.177Z,24.20
2022-08-09T07:13:28.204Z,24.14
2022-08-09T07:16:41.446Z,24.06
2022-08-09T07:18:47.391Z,24.02
2022-08-09T07:21:14.850Z,23.88
2022-08-09T07:23:56.617Z,23.92
2022-08-09T07:26:26.016Z,24.03
2022-08-09T07:29:08.393Z,24.13
2022-08-09T07:31:38.351Z,24.19
2022-08-09T07:34:20.832Z,24.37
2022-08-09T07:36:49.550Z,24.43
2022-08-09T07:39:20.347Z,24.57
2022-08-09T07:42:05.335Z,24.65
2022-08-09T07:44:53.322Z,24.63
2022-08-09T07:47:21.191Z,24.68
2022-08-09T07:50:05.177Z,24.70
2022-08-09T07:52:36.619Z,24.83
2022-08-09T07:55:09.732Z,24.92
2022-08-09T07:57:46.905Z,24.93
2022-08-09T08:00:20.642Z,24.96
2022-08-09T08:03:04.708Z,24.85
2022-08-09T08:05:53.537Z,24.77
2022-08-09T08:09:01.225Z,24.69
2022-08-09T08:12:12.019Z,24.70
2022-08-09T08:13:56.642Z,24.74
2022-08-09T08:16:31.521Z,24.75
2022-08-09T08:18:59.942Z,24.74
2022-08-09T08:21:30.723Z,24.72
2022-08-09T08:24:00.987Z,24.67
2022-08-09T08:26:42.105Z,24.70
2022-08-09T08:29:20.037Z,24.69
2022-08-09T08:32:03.414Z,24.74
2022-08-09T08:34:31.847Z,24.79
2022-08-09T08:37:02.451Z,24.80
2022-08-09T08:39:39.577Z,24.80
2022-08-09T08:42:11.169Z,24.97
2022-08-09T08:44:39.599Z,24.94
2022-08-09T08:47:12.917Z,25.01
2022-08-09T08:49:47.143Z,25.02
2022-08-09T08:52:48.457Z,25.07
2022-08-09T08:55:05.826Z,25.06
2022-08-09T08:57:35.137Z,25.10
2022-08-09T09:00:12.734Z,25.13
2022-08-09T09:02:50.095Z,25.06
2022-08-09T09:05:57.513Z,25.17
2022-08-09T09:08:29.709Z,25.33
2022-08-09T09:11:03.920Z,25.50
2022-08-09T09:13:55.132Z,25.70
2022-08-09T09:16:30.261Z,25.77
2022-08-09T09:19:22.522Z,25.89
2022-08-09T09:22:00.749Z,25.79
2022-08-09T09:24:38.905Z,25.75
2022-08-09T09:27:08.517Z,25.83
2022-08-09T09:30:11.404Z,25.70
2022-08-09T09:32:34.626Z,25.66
2022-08-09T09:35:02.646Z,25.65
2022-08-09T09:37:40.975Z,25.61
2022-08-09T09:40:09.332Z,25.58
2022-08-09T09:42:36.942Z,25.57
2022-08-09T09:45:08.144Z,25.57
2022-08-09T09:47:42.123Z,25.58
2022-08-09T09:50:39.567Z,25.76
2022-08-09T09:53:17.902Z,25.93
2022-08-09T09:55:57.644Z,25.91
2022-08-09T09:58:47.415Z,25.92
2022-08-09T10:01:31.306Z,26.13
2022-08-09T10:04:16.098Z,26.21
2022-08-09T10:06:51.970Z,26.27
2022-08-09T10:09:23.861Z,26.43
2022-08-09T10:12:11.435Z,26.54
2022-08-09T10:14:40.370Z,26.62
2022-08-09T10:17:24.281Z,26.52
2022-08-09T10:20:05.863Z,26.50
2022-08-09T10:22:42.583Z,26.46
2022-08-09T10:25:12.045Z,26.51
2022-08-09T10:27:57.659Z,26.44
2022-08-09T10:34:05.202Z,26.55
2022-08-09T10:36:02.597Z,26.78
2022-08-09T10:38:54.323Z,27.07
2022-08-09T10:41:18.652Z,27.38
2022-08-09T10:43:52.613Z,27.45
2022-08-09T10:46:30.473Z,27.29
2022-08-09T10:49:12.527Z,27.28
2022-08-09T10:51:52.926Z,27.38
2022-08-09T10:54:24.499Z,27.49
2022-08-09T10:57:21.518Z,27.61
2022-08-09T10:59:57.633Z,27.58
2022-08-09T11:03:27.952Z,27.67
2022-08-09T11:05:30.512Z,27.67
2022-08-09T11:08:18.486Z,27.73
2022-08-09T11:11:00.867Z,27.82
2022-08-09T11:13:50.105Z,27.98
2022-08-09T11:16:36.209Z,27.98
2022-08-09T11:19:10.401Z,28.08
2022-08-09T11:22:10.817Z,28.24
2022-08-09T11:25:05.402Z,28.34
2022-08-09T11:28:03.222Z,28.47
2022-08-09T11:30:33.594Z,28.70
2022-08-09T11:33:03.977Z,28.80
2022-08-09T11:35:54.244Z,28.91
2022-08-09T11:38:32.499Z,28.83
2022-08-09T11:41:13.628Z,28.85
2022-08-09T11:43:43.212Z,28.91
2022-08-09T11:46:10.856Z,28.97
2022-08-09T11:48:49.265Z,28.99
2022-08-09T11:52:54.088Z,28.96
2022-08-09T11:54:33.357Z,28.94
2022-08-09T11:57:28.380Z,28.98
2022-08-09T12:00:16.265Z,29.20
2022-08-09T12:02:45.315Z,29.23
2022-08-09T12:05:22.765Z,29.17
2022-08-09T12:07:53.423Z,29.18
2022-08-09T12:10:38.416Z,29.20
2022-08-09T12:14:08.904Z,29.31
2022-08-09T12:16:01.729Z,29.36
2022-08-09T12:18:33.467Z,29.37
2022-08-09T12:21:03.037Z,29.41
2022-08-09T12:24:00.442Z,29.49
2022-08-09T12:26:26.138Z,29.66
2022-08-09T12:29:00.252Z,29.83
2022-08-09T12:32:01.763Z,29.86
2022-08-09T12:34:37.551Z,30.03
2022-08-09T12:37:22.220Z,30.09
2022-08-09T12:40:08.807Z,30.12
2022-08-09T12:42:37.297Z,30.10
2022-08-09T12:45:32.305Z,30.02
2022-08-09T12:47:52.462Z,30.17
2022-08-09T12:50:23.756Z,30.17
2022-08-09T12:53:07.946Z,30.29
2022-08-09T12:56:15.247Z,30.41
2022-08-09T12:58:27.456Z,30.48
2022-08-09T13:00:56.437Z,30.58
2022-08-09T13:03:52.728Z,30.52
2022-08-09T13:06:34.382Z,30.54
2022-08-09T13:09:06.980Z,30.71
2022-08-09T13:11:39.448Z,30.85
2022-08-09T13:14:37.079Z,30.87
2022-08-09T13:17:02.127Z,30.78
2022-08-09T13:20:07.662Z,30.68
2022-08-09T13:22:45.602Z,30.54
2022-08-09T13:25:11.948Z,30.57
2022-08-09T13:27:48.820Z,30.63
2022-08-09T13:30:50.841Z,30.62
2022-08-09T13:33:11.981Z,30.52
2022-08-09T13:36:24.355Z,30.48
2022-08-09T13:38:56.023Z,30.37
2022-08-09T13:41:58.575Z,30.47
2022-08-09T13:44:16.422Z,30.66
2022-08-09T13:47:29.049Z,30.74
2022-08-09T13:49:37.790Z,30.68
2022-08-09T13:52:08.969Z,30.71
2022-08-09T13:54:41.710Z,30.96
2022-08-09T13:57:35.066Z,31.12
2022-08-09T13:59:58.197Z,31.04
2022-08-09T14:02:26.389Z,30.84
2022-08-09T14:04:59.591Z,30.60
2022-08-09T14:07:40.909Z,30.54
2022-08-09T14:10:16.926Z,30.55
2022-08-09T14:12:44.877Z,30.56
2022-08-09T14:16:06.349Z,30.48
2022-08-09T14:18:19.388Z,30.28
2022-08-09T14:20:48.885Z,30.12
2022-08-09T14:23:20.258Z,29.96
2022-08-09T14:26:04.185Z,29.85
2022-08-09T14:28:33.259Z,29.79
2022-08-09T14:31:00.604Z,29.94
2022-08-09T14:33:28.211Z,30.04
2022-08-09T14:35:56.444Z,30.12
2022-08-09T14:38:23.733Z,30.15
2022-08-09T14:41:04.212Z,30.25
2022-08-09T14:43:46.979Z,30.45
2022-08-09T14:46:54.807Z,30.57
2022-08-09T14:49:03.383Z,30.53
2022-08-09T14:51:31.270Z,30.49
2022-08-09T14:54:10.255Z,30.38
2022-08-09T14:56:58.178Z,30.48
2022-08-09T14:59:25.234Z,30.50
2022-08-09T15:01:54.467Z,30.26
2022-08-09T15:04:23.239Z,30.14
2022-08-09T15:06:51.793Z,29.99
2022-08-09T15:10:03.571Z,29.79
2022-08-09T15:12:08.082Z,29.66
2022-08-09T15:14:38.255Z,29.55
2022-08-09T15:17:09.594Z,29.49
2022-08-09T15:19:37.141Z,29.43
2022-08-09T15:22:30.219Z,29.33
2022-08-09T15:25:00.330Z,29.23
2022-08-09T15:27:47.458Z,29.18
2022-08-09T15:31:00.671Z,29.13
2022-08-09T15:33:07.392Z,29.05
2022-08-09T15:35:40.779Z,29.00
2022-08-09T15:38:12.314Z,28.94
2022-08-09T15:40:43.894Z,29.00
2022-08-09T15:43:13.674Z,29.05
2022-08-09T15:46:07.647Z,29.05
2022-08-09T15:48:31.737Z,29.17
2022-08-09T15:51:00.003Z,29.29
2022-08-09T15:54:03.374Z,29.38
2022-08-09T15:56:29.480Z,29.64
2022-08-09T15:58:58.634Z,29.73
2022-08-09T16:01:26.225Z,29.75
2022-08-09T16:03:53.537Z,29.72
2022-08-09T16:06:32.755Z,29.60
2022-08-09T16:09:05.034Z,29.48
2022-08-09T16:11:33.563Z,29.43
2022-08-09T16:14:06.183Z,29.41
2022-08-09T16:16:37.342Z,29.30
2022-08-09T16:19:05.991Z,29.23
2022-08-09T16:21:35.613Z,29.16
2022-08-09T16:24:04.871Z,29.07
2022-08-09T16:26:34.689Z,28.97
2022-08-09T16:29:11.698Z,28.94
2022-08-09T16:32:19.170Z,28.93
2022-08-09T16:34:55.367Z,28.92
2022-08-09T16:37:20.186Z,29.26
2022-08-09T16:40:08.682Z,29.42
2022-08-09T16:42:36.709Z,29.63
2022-08-09T16:45:05.185Z,29.75
2022-08-09T16:48:38.781Z,29.59
2022-08-09T16:50:31.405Z,29.69
2022-08-09T16:53:01.013Z,29.94
2022-08-09T16:55:31.220Z,30.05
2022-08-09T16:58:13.886Z,29.78
2022-08-09T17:00:43.821Z,29.46
2022-08-09T17:03:21.482Z,29.21
2022-08-09T17:06:06.740Z,28.97
2022-08-09T17:08:45.724Z,28.82
2022-08-09T17:11:40.987Z,28.66
2022-08-09T17:14:26.238Z,28.54
2022-08-09T17:16:56.656Z,28.45
2022-08-09T17:19:46.571Z,28.36
2022-08-09T17:22:24.659Z,28.35
2022-08-09T17:25:04.966Z,28.31
2022-08-09T17:27:38.789Z,28.23
2022-08-09T17:30:12.758Z,28.19
2022-08-09T17:32:45.462Z,28.15
2022-08-09T17:35:14.222Z,28.08
2022-08-09T17:38:13.069Z,28.02
2022-08-09T17:40:30.426Z,27.95
2022-08-09T17:43:10.805Z,27.89
2022-08-09T17:46:03.715Z,27.82
2022-08-09T17:48:34.270Z,27.76
2022-08-09T17:51:09.669Z,27.74
2022-08-09T17:53:51.933Z,27.68
2022-08-09T17:56:22.086Z,27.62
2022-08-09T17:58:59.673Z,27.61
2022-08-09T18:02:03.499Z,27.59
2022-08-09T18:04:15.332Z,27.56
2022-08-09T18:06:55.252Z,27.51
2022-08-09T18:09:25.258Z,27.49
2022-08-09T18:12:17.570Z,27.47
2022-08-09T18:14:55.050Z,27.46
2022-08-09T18:17:27.400Z,27.41
2022-08-09T18:20:56.438Z,27.38
2022-08-09T18:23:04.649Z,27.36
2022-08-09T18:25:52.613Z,27.32
2022-08-09T18:30:42.690Z,27.29
2022-08-09T18:31:14.580Z,27.25
2022-08-09T18:33:45.181Z,27.20
2022-08-09T18:36:25.822Z,27.17
2022-08-09T18:39:02.076Z,27.17
2022-08-09T18:41:34.294Z,27.13
2022-08-09T18:44:03.594Z,27.11
2022-08-09T18:46:48.424Z,27.09
2022-08-09T18:49:20.040Z,27.06
2022-08-09T18:51:55.603Z,27.01
2022-08-09T18:54:28.528Z,26.99
2022-08-09T18:57:05.261Z,26.94
2022-08-09T18:59:37.516Z,26.83
2022-08-09T19:02:17.458Z,26.68
2022-08-09T19:04:47.303Z,26.59
2022-08-09T19:07:16.313Z,26.48
2022-08-09T19:10:14.533Z,26.37
2022-08-09T19:12:31.895Z,26.25
2022-08-09T19:15:02.737Z,26.12
2022-08-09T19:17:31.691Z,26.05
2022-08-09T19:20:18.933Z,25.99
2022-08-09T19:22:50.309Z,25.94
2022-08-09T19:25:42.782Z,25.87
2022-08-09T19:28:13.502Z,25.85
2022-08-09T19:30:44.702Z,25.76
2022-08-09T19:33:19.105Z,25.66
2022-08-09T19:35:56.778Z,25.62
2022-08-09T19:38:27.108Z,25.49
2022-08-09T19:40:54.923Z,25.46
2022-08-09T19:44:02.007Z,25.40
2022-08-09T19:46:14.729Z,25.33
2022-08-09T19:49:01.520Z,25.28
2022-08-09T19:51:31.040Z,25.25
2022-08-09T19:53:59.354Z,25.19
2022-08-09T19:56:28.815Z,25.15
2022-08-09T19:59:39.745Z,25.09
2022-08-09T20:01:52.367Z,24.99
2022-08-09T20:04:37.528Z,24.93
2022-08-09T20:07:15.900Z,24.89
2022-08-09T20:09:48.895Z,24.88
2022-08-09T20:12:27.516Z,24.84
2022-08-09T20:15:04.802Z,24.81
2022-08-09T20:17:48.377Z,24.73
2022-08-09T20:20:16.113Z,24.70
2022-08-09T20:22:46.306Z,24.64
2022-08-09T20:25:13.962Z,24.59
2022-08-09T20:27:51.052Z,24.58
2022-08-09T20:30:23.770Z,24.56
2022-08-09T20:32:52.201Z,24.52
2022-08-09T20:35:21.270Z,24.51
2022-08-09T20:38:22.294Z,24.49
2022-08-09T20:40:36.891Z,24.44
2022-08-09T20:43:18.467Z,24.41
2022-08-09T20:45:59.138Z,24.35
2022-08-09T20:48:39.230Z,24.29
2022-08-09T20:51:06.708Z,24.22
2022-08-09T20:53:37.543Z,24.15
2022-08-09T20:56:19.955Z,24.10
2022-08-09T20:58:49.809Z,24.06
2022-08-09T21:01:34.696Z,24.00
2022-08-09T21:05:49.145Z,23.96
2022-08-09T21:06:51.753Z,23.93
2022-08-09T21:09:24.821Z,23.85
2022-08-09T21:14:40.673Z,23.72
2022-08-09T21:18:21.861Z,23.63
2022-08-09T21:20:17.305Z,23.58
2022-08-09T21:22:47.096Z,23.52
2022-08-09T21:25:38.552Z,23.48
2022-08-09T21:28:07.313Z,23.50
2022-08-09T21:30:40.478Z,23.44
2022-08-09T21:33:08.638Z,23.42
2022-08-09T21:35:40.694Z,23.41
2022-08-09T21:38:08.905Z,23.37
2022-08-09T21:40:37.108Z,23.36
2022-08-09T21:43:06.296Z,23.28
2022-08-09T21:45:39.012Z,23.27
2022-08-09T21:48:07.214Z,23.28
2022-08-09T21:50:38.462Z,23.21
2022-08-09T21:53:15.567Z,23.23
2022-08-09T21:55:47.155Z,23.22
2022-08-09T21:58:15.538Z,23.21
2022-08-09T22:00:42.807Z,23.18
2022-08-09T22:03:19.710Z,23.11
2022-08-09T22:05:54.193Z,23.09
2022-08-09T22:08:24.533Z,23.06
2022-08-09T22:11:48.953Z,23.06
2022-08-09T22:13:43.242Z,23.07
2022-08-09T22:16:11.667Z,23.06
2022-08-09T22:18:52.220Z,23.06
2022-08-09T22:21:24.148Z,23.06
2022-08-09T22:23:59.171Z,23.04
2022-08-09T22:26:35.375Z,23.06
2022-08-09T22:29:09.247Z,23.05
2022-08-09T22:31:44.585Z,23.08
2022-08-09T22:34:25.485Z,23.07
2022-08-09T22:36:54.631Z,23.05
2022-08-09T22:39:57.501Z,23.01
2022-08-09T22:42:20.951Z,22.99
2022-08-09T22:45:11.520Z,22.98
2022-08-09T22:48:11.359Z,22.92
2022-08-09T22:50:29.892Z,22.78
2022-08-09T22:52:58.489Z,22.74
2022-08-09T22:55:33.628Z,22.69
2022-08-09T22:58:07.020Z,22.65
2022-08-09T23:00:36.339Z,22.62
2022-08-09T23:03:04.738Z,22.60
2022-08-09T23:05:40.152Z,22.59
2022-08-09T23:08:31.850Z,22.51
2022-08-09T23:10:59.486Z,22.54
2022-08-09T23:13:26.777Z,22.54
2022-08-09T23:16:02.164Z,22.52
2022-08-09T23:18:31.260Z,22.47
2022-08-09T23:20:58.542Z,22.50
2022-08-09T23:23:25.920Z,22.53
2022-08-09T23:25:53.187Z,22.55
2022-08-09T23:28:20.488Z,22.51
2022-08-09T23:30:51.633Z,22.50
2022-08-09T23:33:20.771Z,22.51
2022-08-09T23:36:04.414Z,22.49
2022-08-09T23:38:35.373Z,22.48
2022-08-09T23:41:03.256Z,22.48
2022-08-09T23:43:30.638Z,22.46
2022-08-09T23:45:57.939Z,22.42
2022-08-09T23:48:25.202Z,22.37
2022-08-09T23:50:52.451Z,22.36
2022-08-09T23:53:19.732Z,22.35
2022-08-09T23:55:55.482Z,22.35
2022-08-09T23:58:25.909Z,22.31
